createdAt,value
2022-07-25T00:01:51.888Z,2.10
2022-07-25T00:04:40.534Z,2.05
2022-07-25T00:07:30.888Z,1.85
2022-07-25T00:10:19.194Z,1.67
2022-07-25T00:13:07.374Z,1.90
2022-07-25T00:15:56.959Z,1.98
2022-07-25T00:18:45.369Z,1.92
2022-07-25T00:21:33.571Z,1.77
2022-07-25T00:24:21.758Z,2.33
2022-07-25T00:27:09.960Z,1.90
2022-07-25T00:29:58.125Z,1.98
2022-07-25T00:32:47.680Z,1.90
2022-07-25T00:35:35.968Z,2.00
2022-07-25T00:38:24.169Z,1.90
2022-07-25T00:41:12.400Z,2.22
2022-07-25T00:44:00.614Z,2.03
2022-07-25T00:46:48.848Z,2.30
2022-07-25T00:49:38.409Z,1.98
2022-07-25T00:52:26.810Z,2.05
2022-07-25T00:55:16.686Z,2.33
2022-07-25T00:58:04.879Z,2.20
2022-07-25T01:00:53.100Z,2.00
2022-07-25T01:03:41.383Z,2.15
2022-07-25T01:06:31.312Z,1.95
2022-07-25T01:09:19.935Z,2.00
2022-07-25T01:12:08.515Z,1.92
2022-07-25T01:14:59.139Z,1.80
2022-07-25T01:17:47.430Z,2.28
2022-07-25T01:20:37.005Z,2.03
2022-07-25T01:23:25.185Z,2.30
2022-07-25T01:26:13.370Z,2.53
2022-07-25T01:29:01.578Z,2.00
2022-07-25T01:31:49.751Z,2.00
2022-07-25T01:34:37.929Z,2.28
2022-07-25T01:37:27.471Z,2.00
2022-07-25T01:40:16.233Z,2.33
2022-07-25T01:43:04.631Z,2.03
2022-07-25T01:45:52.937Z,2.25
2022-07-25T01:48:42.742Z,1.90
2022-07-25T01:51:30.954Z,1.97
2022-07-25T01:54:20.550Z,1.92
2022-07-25T01:57:10.369Z,2.50
2022-07-25T02:00:00.282Z,1.90
2022-07-25T02:02:48.569Z,2.08
2022-07-25T02:05:36.770Z,2.10
2022-07-25T02:08:24.934Z,2.17
2022-07-25T02:11:14.454Z,2.03
2022-07-25T02:14:02.821Z,2.03
2022-07-25T02:16:51.503Z,2.28
2022-07-25T02:19:39.737Z,1.88
2022-07-25T02:22:27.931Z,1.95
2022-07-25T02:25:16.104Z,2.50
2022-07-25T02:28:06.253Z,2.35
2022-07-25T02:30:54.579Z,2.33
2022-07-25T02:33:42.903Z,2.13
2022-07-25T02:36:31.151Z,2.15
2022-07-25T02:39:19.357Z,2.63
2022-07-25T02:42:07.804Z,2.35
2022-07-25T02:44:57.320Z,2.42
2022-07-25T02:47:45.684Z,2.10
2022-07-25T02:50:33.920Z,2.45
2022-07-25T02:53:40.265Z,2.25
2022-07-25T02:56:32.060Z,2.45
2022-07-25T02:59:20.381Z,2.38
2022-07-25T03:02:09.891Z,2.13
2022-07-25T03:04:58.257Z,2.40
2022-07-25T03:07:46.855Z,2.10
2022-07-25T03:10:36.385Z,2.10
2022-07-25T03:13:24.681Z,2.25
2022-07-25T03:16:12.990Z,2.10
2022-07-25T03:19:02.505Z,2.38
2022-07-25T03:21:50.730Z,2.50
2022-07-25T03:24:38.929Z,2.60
2022-07-25T03:27:27.276Z,2.50
2022-07-25T03:30:15.538Z,2.60
2022-07-25T03:33:03.813Z,2.65
2022-07-25T03:35:53.331Z,2.40
2022-07-25T03:38:41.957Z,2.22
2022-07-25T03:41:30.178Z,2.50
2022-07-25T03:44:18.611Z,2.33
2022-07-25T03:47:07.165Z,2.30
2022-07-25T03:49:55.366Z,2.50
2022-07-25T03:52:44.850Z,2.75
2022-07-25T03:55:33.003Z,2.70
2022-07-25T03:58:21.176Z,2.40
2022-07-25T04:01:09.372Z,2.25
2022-07-25T04:03:59.169Z,2.83
2022-07-25T04:06:47.762Z,2.40
2022-07-25T04:09:37.286Z,2.42
2022-07-25T04:12:25.466Z,2.72
2022-07-25T04:15:13.740Z,2.80
2022-07-25T04:18:01.893Z,2.60
2022-07-25T04:20:51.009Z,2.42
2022-07-25T04:23:39.323Z,2.65
2022-07-25T04:26:28.860Z,2.63
2022-07-25T04:29:17.095Z,2.80
2022-07-25T04:32:06.190Z,2.40
2022-07-25T04:34:55.421Z,2.83
2022-07-25T04:37:43.582Z,2.50
2022-07-25T04:40:31.866Z,2.65
2022-07-25T04:43:23.066Z,3.08
2022-07-25T04:46:11.414Z,2.85
2022-07-25T04:48:59.826Z,2.80
2022-07-25T04:51:48.038Z,2.95
2022-07-25T04:54:36.248Z,3.55
2022-07-25T04:57:24.412Z,3.42
2022-07-25T05:00:15.615Z,3.42
2022-07-25T05:03:04.839Z,3.15
2022-07-25T05:05:53.034Z,3.63
2022-07-25T05:08:41.233Z,2.90
2022-07-25T05:11:29.840Z,2.97
2022-07-25T05:14:18.447Z,2.47
2022-07-25T05:17:10.464Z,2.85
2022-07-25T05:19:58.971Z,2.70
2022-07-25T05:22:47.244Z,3.03
2022-07-25T05:25:35.423Z,2.63
2022-07-25T05:28:23.591Z,2.78
2022-07-25T05:31:11.986Z,3.40
2022-07-25T05:34:01.547Z,3.35
2022-07-25T05:36:49.695Z,3.17
2022-07-25T05:39:40.248Z,2.97
2022-07-25T05:42:28.663Z,2.78
2022-07-25T05:45:16.864Z,3.00
2022-07-25T05:48:05.342Z,3.17
2022-07-25T05:50:54.833Z,3.17
2022-07-25T05:53:43.099Z,3.10
2022-07-25T05:56:31.418Z,3.30
2022-07-25T05:59:19.638Z,3.30
2022-07-25T06:02:08.005Z,3.30
2022-07-25T06:04:56.388Z,3.40
2022-07-25T06:07:45.893Z,3.40
2022-07-25T06:10:34.126Z,3.90
2022-07-25T06:13:23.928Z,3.30
2022-07-25T06:16:12.321Z,3.25
2022-07-25T06:19:00.558Z,3.65
2022-07-25T06:21:48.703Z,3.75
2022-07-25T06:24:38.353Z,4.15
2022-07-25T06:27:29.424Z,3.58
2022-07-25T06:30:20.459Z,3.30
2022-07-25T06:33:09.198Z,3.40
2022-07-25T06:35:57.732Z,3.13
2022-07-25T06:38:45.951Z,3.30
2022-07-25T06:41:36.824Z,3.70
2022-07-25T06:44:25.018Z,3.30
2022-07-25T06:47:13.554Z,3.33
2022-07-25T06:50:01.764Z,3.50
2022-07-25T06:52:50.355Z,3.83
2022-07-25T06:55:38.834Z,3.65
2022-07-25T06:58:28.783Z,3.67
2022-07-25T07:01:17.113Z,4.07
2022-07-25T07:04:06.709Z,3.78
2022-07-25T07:06:55.159Z,3.60
2022-07-25T07:09:43.565Z,3.95
2022-07-25T07:12:31.776Z,4.57
2022-07-25T07:15:21.495Z,4.15
2022-07-25T07:18:09.645Z,4.70
2022-07-25T07:20:57.927Z,4.45
2022-07-25T07:23:46.117Z,4.25
2022-07-25T07:26:36.148Z,4.82
2022-07-25T07:29:24.307Z,5.65
2022-07-25T07:32:13.896Z,4.68
2022-07-25T07:35:02.083Z,3.63
2022-07-25T07:37:50.286Z,4.22
2022-07-25T07:40:38.704Z,5.50
2022-07-25T07:43:30.051Z,4.60
2022-07-25T07:46:18.696Z,4.90
2022-07-25T07:49:08.516Z,5.43
2022-07-25T07:51:56.999Z,4.70
2022-07-25T07:55:02.995Z,4.38
2022-07-25T07:57:51.287Z,4.53
2022-07-25T08:00:40.215Z,6.13
2022-07-25T08:03:28.857Z,4.97
2022-07-25T08:06:18.398Z,5.68
2022-07-25T08:09:06.905Z,4.47
2022-07-25T08:11:55.200Z,4.70
2022-07-25T08:14:43.479Z,4.90
2022-07-25T08:17:31.708Z,4.40
2022-07-25T08:20:37.339Z,5.03
2022-07-25T08:23:28.703Z,4.75
2022-07-25T08:26:16.886Z,5.13
2022-07-25T08:29:18.828Z,4.50
2022-07-25T08:32:07.921Z,4.80
2022-07-25T08:34:56.362Z,7.50
2022-07-25T08:37:44.844Z,5.00
2022-07-25T08:40:35.349Z,5.25
2022-07-25T08:43:24.448Z,5.43
2022-07-25T08:46:13.090Z,5.40
2022-07-25T08:49:01.396Z,5.25
2022-07-25T08:51:51.618Z,5.35
2022-07-25T08:54:40.304Z,5.70
2022-07-25T08:57:30.481Z,5.32
2022-07-25T09:03:08.294Z,5.45
2022-07-25T09:05:56.565Z,5.88
2022-07-25T09:08:53.178Z,5.68
2022-07-25T09:11:41.413Z,5.63
2022-07-25T09:14:31.070Z,6.45
2022-07-25T09:17:22.162Z,6.72
2022-07-25T09:20:16.607Z,6.15
2022-07-25T09:23:07.214Z,5.78
2022-07-25T09:26:03.300Z,6.97
2022-07-25T09:28:53.373Z,5.82
2022-07-25T09:31:43.050Z,5.95
2022-07-25T09:34:34.695Z,5.60
2022-07-25T09:37:28.122Z,5.72
2022-07-25T09:40:16.725Z,5.78
2022-07-25T09:43:05.302Z,6.32
2022-07-25T09:45:53.856Z,6.47
2022-07-25T09:48:46.367Z,5.95
2022-07-25T09:51:35.238Z,6.18
2022-07-25T09:54:24.096Z,6.07
2022-07-25T09:57:12.386Z,6.00
2022-07-25T10:00:01.404Z,6.32
2022-07-25T10:02:53.478Z,5.63
2022-07-25T10:05:52.018Z,5.45
2022-07-25T10:08:42.249Z,5.75
2022-07-25T10:11:31.463Z,6.20
2022-07-25T10:14:20.315Z,6.10
2022-07-25T10:17:08.769Z,5.47
2022-07-25T10:19:58.881Z,5.50
2022-07-25T10:22:57.321Z,6.00
2022-07-25T10:25:49.182Z,6.03
2022-07-25T10:28:39.756Z,5.88
2022-07-25T10:31:36.548Z,6.07
2022-07-25T10:34:30.653Z,6.07
2022-07-25T10:37:21.106Z,6.35
2022-07-25T10:40:12.311Z,6.00
2022-07-25T10:43:08.642Z,6.13
2022-07-25T10:46:00.800Z,5.93
2022-07-25T10:49:00.261Z,6.28
2022-07-25T10:51:56.976Z,6.10
2022-07-25T10:54:55.758Z,6.43
2022-07-25T10:58:07.895Z,6.47
2022-07-25T11:00:54.366Z,5.95
2022-07-25T11:03:45.055Z,6.18
2022-07-25T11:06:35.364Z,6.65
2022-07-25T11:09:27.992Z,6.70
2022-07-25T11:12:16.901Z,6.43
2022-07-25T11:15:08.795Z,6.30
2022-07-25T11:17:56.997Z,5.82
2022-07-25T11:20:45.396Z,6.28
2022-07-25T11:23:33.699Z,6.90
2022-07-25T11:26:21.956Z,6.10
2022-07-25T11:29:10.367Z,6.13
2022-07-25T11:32:01.357Z,6.38
2022-07-25T11:34:51.406Z,6.68
2022-07-25T11:37:41.908Z,6.75
2022-07-25T11:40:30.429Z,6.00
2022-07-25T11:43:21.692Z,6.43
2022-07-25T11:46:10.196Z,6.63
2022-07-25T11:49:08.876Z,6.50
2022-07-25T11:51:57.427Z,6.88
2022-07-25T11:54:55.104Z,5.72
2022-07-25T11:57:46.943Z,6.25
2022-07-25T12:00:36.586Z,6.35
2022-07-25T12:03:24.844Z,6.15
2022-07-25T12:06:14.574Z,6.30
2022-07-25T12:12:07.015Z,6.18
2022-07-25T12:14:55.192Z,6.17
2022-07-25T12:17:44.324Z,6.90
2022-07-25T12:20:34.568Z,5.82
2022-07-25T12:23:24.122Z,5.70
2022-07-25T12:26:14.469Z,6.07
2022-07-25T12:29:02.852Z,6.10
2022-07-25T12:31:51.213Z,5.88
2022-07-25T12:34:39.625Z,6.35
2022-07-25T12:37:31.078Z,6.00
2022-07-25T12:40:21.513Z,6.03
2022-07-25T12:43:10.100Z,6.10
2022-07-25T12:45:58.504Z,5.63
2022-07-25T12:48:46.906Z,6.20
2022-07-25T12:51:35.115Z,5.68
2022-07-25T12:54:23.305Z,5.80
2022-07-25T12:57:14.224Z,5.18
2022-07-25T13:00:02.472Z,5.25
2022-07-25T13:02:53.170Z,5.75
2022-07-25T13:05:41.958Z,4.90
2022-07-25T13:08:30.147Z,4.60
2022-07-25T13:11:18.349Z,5.53
2022-07-25T13:14:07.950Z,5.43
2022-07-25T13:19:45.644Z,5.43
2022-07-25T13:22:34.252Z,6.10
2022-07-25T13:25:28.121Z,5.60
2022-07-25T13:28:19.481Z,5.47
2022-07-25T13:31:10.706Z,5.22
2022-07-25T13:33:59.689Z,5.20
2022-07-25T13:36:48.859Z,5.57
2022-07-25T13:39:38.416Z,6.07
2022-07-25T13:42:26.644Z,6.00
2022-07-25T13:45:14.938Z,5.57
2022-07-25T13:48:28.465Z,5.38
2022-07-25T13:51:14.570Z,5.30
2022-07-25T13:54:03.603Z,5.55
2022-07-25T13:56:51.825Z,4.63
2022-07-25T13:59:40.714Z,4.65
2022-07-25T14:02:29.452Z,4.63
2022-07-25T14:05:19.184Z,5.18
2022-07-25T14:08:08.100Z,5.15
2022-07-25T14:10:56.296Z,5.55
2022-07-25T14:13:45.258Z,5.18
2022-07-25T14:16:34.439Z,5.20
2022-07-25T14:19:24.123Z,5.00
2022-07-25T14:22:13.695Z,4.25
2022-07-25T14:25:02.026Z,4.55
2022-07-25T14:27:50.255Z,5.32
2022-07-25T14:30:38.444Z,4.65
2022-07-25T14:33:26.678Z,4.60
2022-07-25T14:36:14.877Z,5.13
2022-07-25T14:39:05.638Z,5.07
2022-07-25T14:41:54.085Z,4.28
2022-07-25T14:44:43.344Z,4.07
2022-07-25T14:47:31.545Z,3.88
2022-07-25T14:50:19.738Z,3.75
2022-07-25T14:53:07.915Z,3.90
2022-07-25T14:55:57.411Z,4.07
2022-07-25T14:58:45.611Z,4.05
2022-07-25T15:01:34.077Z,4.25
2022-07-25T15:04:38.861Z,4.22
2022-07-25T15:07:27.454Z,3.80
2022-07-25T15:10:15.646Z,4.18
2022-07-25T15:13:29.849Z,4.55
2022-07-25T15:19:16.408Z,3.90
2022-07-25T15:22:05.534Z,3.95
2022-07-25T15:25:27.530Z,4.55
2022-07-25T15:28:06.734Z,5.05
2022-07-25T15:30:55.025Z,4.78
2022-07-25T15:33:43.193Z,5.40
2022-07-25T15:36:33.125Z,4.63
2022-07-25T15:39:23.155Z,5.07
2022-07-25T15:42:11.352Z,5.57
2022-07-25T15:45:31.273Z,5.05
2022-07-25T15:48:11.524Z,5.47
2022-07-25T15:51:01.419Z,5.50
2022-07-25T15:53:49.610Z,5.80
2022-07-25T15:56:38.853Z,6.18
2022-07-25T15:59:27.060Z,5.90
2022-07-25T16:02:16.623Z,6.80
2022-07-25T16:05:05.642Z,6.60
2022-07-25T16:07:56.143Z,6.13
2022-07-25T16:10:44.307Z,6.10
2022-07-25T16:13:32.606Z,5.78
2022-07-25T16:16:22.318Z,5.97
2022-07-25T16:19:15.007Z,5.03
2022-07-25T16:22:03.230Z,4.70
2022-07-25T16:24:51.871Z,4.63
2022-07-25T16:27:40.102Z,4.85
2022-07-25T16:30:28.709Z,4.68
2022-07-25T16:33:17.033Z,4.85
2022-07-25T16:36:07.589Z,4.97
2022-07-25T16:38:55.797Z,5.30
2022-07-25T16:41:45.385Z,5.03
2022-07-25T16:44:33.923Z,4.20
2022-07-25T16:47:22.143Z,4.57
2022-07-25T16:50:10.505Z,4.53
2022-07-25T16:53:00.134Z,3.45
2022-07-25T16:55:48.328Z,3.60
2022-07-25T16:58:36.527Z,3.65
2022-07-25T17:01:26.612Z,3.80
2022-07-25T17:04:14.915Z,3.60
2022-07-25T17:07:03.207Z,3.72
2022-07-25T17:09:53.208Z,3.85
2022-07-25T17:12:41.404Z,4.45
2022-07-25T17:15:29.628Z,4.10
2022-07-25T17:18:18.349Z,3.63
2022-07-25T17:21:07.241Z,4.20
2022-07-25T17:23:56.478Z,4.17
2022-07-25T17:26:46.060Z,4.30
2022-07-25T17:29:35.719Z,4.53
2022-07-25T17:32:27.837Z,4.18
2022-07-25T17:35:18.089Z,4.80
2022-07-25T17:38:06.592Z,4.57
2022-07-25T17:40:55.898Z,4.32
2022-07-25T17:43:45.422Z,4.50
2022-07-25T17:46:33.695Z,4.50
2022-07-25T17:49:22.041Z,4.68
2022-07-25T17:52:12.203Z,4.40
2022-07-25T17:55:00.422Z,4.18
2022-07-25T17:57:52.943Z,4.90
2022-07-25T18:00:42.569Z,4.18
2022-07-25T18:03:31.667Z,4.57
2022-07-25T18:06:19.935Z,4.50
2022-07-25T18:09:08.581Z,4.50
2022-07-25T18:12:00.063Z,4.57
2022-07-25T18:14:48.326Z,4.78
2022-07-25T18:17:37.838Z,4.70
2022-07-25T18:20:28.058Z,4.53
2022-07-25T18:23:16.213Z,4.85
2022-07-25T18:26:04.598Z,4.95
2022-07-25T18:28:52.923Z,4.60
2022-07-25T18:31:41.175Z,5.60
2022-07-25T18:34:31.209Z,5.70
2022-07-25T18:37:19.404Z,6.55
2022-07-25T18:40:09.592Z,6.95
2022-07-25T18:45:46.757Z,7.75
2022-07-25T18:48:35.968Z,8.27
2022-07-25T18:51:25.655Z,7.60
2022-07-25T18:54:14.257Z,8.20
2022-07-25T18:57:03.832Z,7.82
2022-07-25T18:59:52.080Z,7.47
2022-07-25T19:02:40.283Z,6.60
2022-07-25T19:05:28.619Z,6.60
2022-07-25T19:08:18.255Z,6.68
2022-07-25T19:11:06.850Z,6.90
2022-07-25T19:13:55.075Z,6.88
2022-07-25T19:16:46.004Z,6.47
2022-07-25T19:19:34.660Z,6.18
2022-07-25T19:22:22.865Z,5.80
2022-07-25T19:25:13.606Z,6.20
2022-07-25T19:28:02.052Z,6.38
2022-07-25T19:30:50.367Z,6.05
2022-07-25T19:33:38.889Z,5.60
2022-07-25T19:36:27.055Z,6.18
2022-07-25T19:39:17.437Z,6.72
2022-07-25T19:44:58.374Z,6.57
2022-07-25T19:47:46.595Z,7.57
2022-07-25T19:50:34.831Z,6.32
2022-07-25T19:53:28.097Z,6.30
2022-07-25T19:56:16.697Z,6.43
2022-07-25T19:59:06.402Z,7.05
2022-07-25T20:01:55.355Z,6.50
2022-07-25T20:04:44.063Z,6.28
2022-07-25T20:07:32.317Z,6.13
2022-07-25T20:10:20.620Z,6.55
2022-07-25T20:13:08.857Z,6.57
2022-07-25T20:15:59.035Z,7.10
2022-07-25T20:18:47.291Z,7.22
2022-07-25T20:21:37.007Z,6.70
2022-07-25T20:24:25.160Z,6.03
2022-07-25T20:27:13.383Z,6.53
2022-07-25T20:30:03.686Z,6.15
2022-07-25T20:32:53.675Z,6.55
2022-07-25T20:35:41.862Z,5.65
2022-07-25T20:38:31.141Z,6.13
2022-07-25T20:41:19.295Z,6.03
2022-07-25T20:44:07.640Z,5.57
2022-07-25T20:46:55.831Z,6.32
2022-07-25T20:49:46.423Z,5.95
2022-07-25T20:52:34.612Z,7.80
2022-07-25T20:55:23.170Z,7.55
2022-07-25T20:58:11.384Z,7.95
2022-07-25T21:00:59.813Z,8.05
2022-07-25T21:03:47.996Z,8.27
2022-07-25T21:06:37.612Z,7.78
2022-07-25T21:09:29.637Z,7.90
2022-07-25T21:12:21.080Z,7.90
2022-07-25T21:15:10.054Z,7.90
2022-07-25T21:17:59.592Z,8.25
2022-07-25T21:20:47.943Z,8.63
2022-07-25T21:23:38.890Z,8.90
2022-07-25T21:26:27.412Z,9.25
2022-07-25T21:29:15.603Z,7.95
2022-07-25T21:32:04.523Z,8.55
2022-07-25T21:34:52.780Z,8.43
2022-07-25T21:37:41.009Z,8.52
2022-07-25T21:40:30.541Z,8.40
2022-07-25T21:43:19.687Z,8.43
2022-07-25T21:46:08.107Z,9.15
2022-07-25T21:49:14.425Z,8.88
2022-07-25T21:52:03.379Z,9.25
2022-07-25T21:54:51.881Z,8.70
2022-07-25T21:57:41.407Z,9.38
2022-07-25T22:00:33.148Z,8.98
2022-07-25T22:03:22.549Z,9.32
2022-07-25T22:06:11.154Z,9.15
2022-07-25T22:08:59.368Z,9.25
2022-07-25T22:11:47.589Z,8.73
2022-07-25T22:14:38.085Z,9.00
2022-07-25T22:17:26.334Z,8.75
2022-07-25T22:20:14.685Z,9.02
2022-07-25T22:23:03.003Z,9.02
2022-07-25T22:25:51.207Z,9.43
2022-07-25T22:28:39.457Z,9.10
2022-07-25T22:31:29.092Z,9.45
2022-07-25T22:34:17.347Z,10.25
2022-07-25T22:37:05.591Z,10.77
2022-07-25T22:39:57.732Z,10.30
2022-07-25T22:42:48.837Z,10.48
2022-07-25T22:45:42.583Z,10.20
2022-07-25T22:48:32.484Z,10.90
2022-07-25T22:51:20.721Z,10.32
2022-07-25T22:54:08.916Z,10.63
2022-07-25T22:56:57.727Z,11.60
2022-07-25T22:59:49.179Z,10.15
2022-07-25T23:02:37.514Z,10.15
2022-07-25T23:05:27.174Z,10.27
2022-07-25T23:08:15.329Z,10.68
2022-07-25T23:11:06.183Z,10.70
2022-07-25T23:13:54.528Z,10.35
2022-07-25T23:16:43.872Z,9.40
2022-07-25T23:19:32.080Z,10.05
2022-07-25T23:22:23.069Z,9.75
2022-07-25T23:25:11.736Z,10.25
2022-07-25T23:27:59.904Z,10.40
2022-07-25T23:30:48.500Z,10.15
2022-07-25T23:33:36.754Z,10.48
2022-07-25T23:36:24.927Z,10.00
2022-07-25T23:39:14.858Z,10.30
2022-07-25T23:42:03.400Z,10.75
2022-07-25T23:44:51.622Z,10.85
2022-07-25T23:47:40.717Z,11.20
2022-07-25T23:50:30.116Z,10.70
2022-07-25T23:53:18.369Z,10.65
2022-07-25T23:56:08.085Z,11.15
2022-07-25T23:58:56.328Z,10.02
